sensor_id;sensor_type;location;lat;lon;timestamp;temperature;humidity
59041;DHT22;44825;53.200;6.448;2022-09-28T00:00:55;9.50;99.90
59041;DHT22;44825;53.200;6.448;2022-09-28T00:03:24;9.50;99.90
59041;DHT22;44825;53.200;6.448;2022-09-28T00:05:58;9.50;99.90
59041;DHT22;44825;53.200;6.448;2022-09-28T00:08:26;9.50;99.90
59041;DHT22;44825;53.200;6.448;2022-09-28T00:10:54;9.50;99.90
59041;DHT22;44825;53.200;6.448;2022-09-28T00:13:22;9.50;99.90
59041;DHT22;44825;53.200;6.448;2022-09-28T00:15:58;9.50;99.90
59041;DHT22;44825;53.200;6.448;2022-09-28T00:18:27;9.50;99.90
59041;DHT22;44825;53.200;6.448;2022-09-28T00:21:02;9.60;99.90
59041;DHT22;44825;53.200;6.448;2022-09-28T00:23:31;9.50;99.90
59041;DHT22;44825;53.200;6.448;2022-09-28T00:26:01;9.50;99.90
59041;DHT22;44825;53.200;6.448;2022-09-28T00:28:28;9.60;99.90
59041;DHT22;44825;53.200;6.448;2022-09-28T00:30:56;9.50;99.90
59041;DHT22;44825;53.200;6.448;2022-09-28T00:33:23;9.60;99.90
59041;DHT22;44825;53.200;6.448;2022-09-28T00:35:56;9.50;99.90
59041;DHT22;44825;53.200;6.448;2022-09-28T00:38:26;9.60;99.90
59041;DHT22;44825;53.200;6.448;2022-09-28T00:40:53;9.50;99.90
59041;DHT22;44825;53.200;6.448;2022-09-28T00:43:22;9.60;99.90
59041;DHT22;44825;53.200;6.448;2022-09-28T00:45:55;9.60;99.90
59041;DHT22;44825;53.200;6.448;2022-09-28T00:48:27;9.60;99.90
59041;DHT22;44825;53.200;6.448;2022-09-28T00:50:58;9.60;99.90
59041;DHT22;44825;53.200;6.448;2022-09-28T00:53:31;9.60;99.90
59041;DHT22;44825;53.200;6.448;2022-09-28T00:56:04;9.60;99.90
59041;DHT22;44825;53.200;6.448;2022-09-28T00:58:38;9.60;99.90
59041;DHT22;44825;53.200;6.448;2022-09-28T01:01:07;9.60;99.90
59041;DHT22;44825;53.200;6.448;2022-09-28T01:03:36;9.60;99.90
59041;DHT22;44825;53.200;6.448;2022-09-28T01:06:05;9.50;99.90
59041;DHT22;44825;53.200;6.448;2022-09-28T01:08:34;9.60;99.90
59041;DHT22;44825;53.200;6.448;2022-09-28T01:11:02;9.60;99.90
59041;DHT22;44825;53.200;6.448;2022-09-28T01:13:30;9.50;99.90
59041;DHT22;44825;53.200;6.448;2022-09-28T01:16:03;9.50;99.90
59041;DHT22;44825;53.200;6.448;2022-09-28T01:18:38;9.50;99.90
59041;DHT22;44825;53.200;6.448;2022-09-28T01:21:09;9.40;99.90
59041;DHT22;44825;53.200;6.448;2022-09-28T01:24:13;9.50;99.90
59041;DHT22;44825;53.200;6.448;2022-09-28T01:26:53;9.40;99.90
59041;DHT22;44825;53.200;6.448;2022-09-28T01:32:18;9.40;99.90
59041;DHT22;44825;53.200;6.448;2022-09-28T01:34:52;9.40;99.90
59041;DHT22;44825;53.200;6.448;2022-09-28T01:37:22;9.30;99.90
59041;DHT22;44825;53.200;6.448;2022-09-28T01:39:53;9.30;99.90
59041;DHT22;44825;53.200;6.448;2022-09-28T01:42:27;9.30;99.90
59041;DHT22;44825;53.200;6.448;2022-09-28T01:45:01;9.20;99.90
59041;DHT22;44825;53.200;6.448;2022-09-28T01:47:34;9.20;99.90
59041;DHT22;44825;53.200;6.448;2022-09-28T01:50:07;9.20;99.90
59041;DHT22;44825;53.200;6.448;2022-09-28T01:52:43;9.20;99.90
59041;DHT22;44825;53.200;6.448;2022-09-28T01:55:13;9.30;99.90
59041;DHT22;44825;53.200;6.448;2022-09-28T01:57:48;9.30;99.90
59041;DHT22;44825;53.200;6.448;2022-09-28T02:00:18;9.30;99.90
59041;DHT22;44825;53.200;6.448;2022-09-28T02:02:48;9.30;99.90
59041;DHT22;44825;53.200;6.448;2022-09-28T02:05:21;9.30;99.90
59041;DHT22;44825;53.200;6.448;2022-09-28T02:07:55;9.30;99.90
59041;DHT22;44825;53.200;6.448;2022-09-28T02:10:27;9.30;99.90
59041;DHT22;44825;53.200;6.448;2022-09-28T02:13:00;9.30;99.90
59041;DHT22;44825;53.200;6.448;2022-09-28T02:15:32;9.30;99.90
59041;DHT22;44825;53.200;6.448;2022-09-28T02:18:01;9.30;99.90
59041;DHT22;44825;53.200;6.448;2022-09-28T02:20:30;9.30;99.90
59041;DHT22;44825;53.200;6.448;2022-09-28T02:22:58;9.30;99.90
59041;DHT22;44825;53.200;6.448;2022-09-28T02:25:32;9.30;99.90
59041;DHT22;44825;53.200;6.448;2022-09-28T02:28:04;9.30;99.90
59041;DHT22;44825;53.200;6.448;2022-09-28T02:30:32;9.30;99.90
59041;DHT22;44825;53.200;6.448;2022-09-28T02:33:04;9.30;99.90
59041;DHT22;44825;53.200;6.448;2022-09-28T02:35:36;9.30;99.90
59041;DHT22;44825;53.200;6.448;2022-09-28T02:38:03;9.30;99.90
59041;DHT22;44825;53.200;6.448;2022-09-28T02:40:33;9.40;99.90
59041;DHT22;44825;53.200;6.448;2022-09-28T02:43:10;9.30;99.90
59041;DHT22;44825;53.200;6.448;2022-09-28T02:45:55;9.30;99.90
59041;DHT22;44825;53.200;6.448;2022-09-28T02:48:38;9.30;99.90
59041;DHT22;44825;53.200;6.448;2022-09-28T02:51:18;9.30;99.90
59041;DHT22;44825;53.200;6.448;2022-09-28T02:57:04;9.30;99.90
59041;DHT22;44825;53.200;6.448;2022-09-28T02:59:48;9.20;99.90
59041;DHT22;44825;53.200;6.448;2022-09-28T03:02:24;9.30;99.90
59041;DHT22;44825;53.200;6.448;2022-09-28T03:05:08;9.30;99.90
59041;DHT22;44825;53.200;6.448;2022-09-28T03:07:40;9.30;99.90
59041;DHT22;44825;53.200;6.448;2022-09-28T03:10:15;9.20;99.90
59041;DHT22;44825;53.200;6.448;2022-09-28T03:12:45;9.30;99.90
59041;DHT22;44825;53.200;6.448;2022-09-28T03:15:19;9.20;99.90
59041;DHT22;44825;53.200;6.448;2022-09-28T03:17:47;9.20;99.90
59041;DHT22;44825;53.200;6.448;2022-09-28T03:20:15;9.20;99.90
59041;DHT22;44825;53.200;6.448;2022-09-28T03:22:42;9.20;99.90
59041;DHT22;44825;53.200;6.448;2022-09-28T03:25:10;9.20;99.90
59041;DHT22;44825;53.200;6.448;2022-09-28T03:27:37;9.10;99.90
59041;DHT22;44825;53.200;6.448;2022-09-28T03:30:06;9.00;99.90
59041;DHT22;44825;53.200;6.448;2022-09-28T03:32:35;9.00;99.90
59041;DHT22;44825;53.200;6.448;2022-09-28T03:35:03;8.90;99.90
59041;DHT22;44825;53.200;6.448;2022-09-28T03:37:30;8.80;99.90
59041;DHT22;44825;53.200;6.448;2022-09-28T03:39:58;8.80;99.90
59041;DHT22;44825;53.200;6.448;2022-09-28T03:42:25;8.80;99.90
59041;DHT22;44825;53.200;6.448;2022-09-28T03:44:52;8.80;99.90
59041;DHT22;44825;53.200;6.448;2022-09-28T03:47:20;8.80;99.90
59041;DHT22;44825;53.200;6.448;2022-09-28T03:49:48;8.80;99.90
59041;DHT22;44825;53.200;6.448;2022-09-28T03:52:16;8.80;99.90
59041;DHT22;44825;53.200;6.448;2022-09-28T03:54:43;8.80;99.90
59041;DHT22;44825;53.200;6.448;2022-09-28T03:57:11;8.80;99.90
59041;DHT22;44825;53.200;6.448;2022-09-28T03:59:38;8.80;99.90
59041;DHT22;44825;53.200;6.448;2022-09-28T04:02:05;8.70;99.90
59041;DHT22;44825;53.200;6.448;2022-09-28T04:04:32;8.70;99.90
59041;DHT22;44825;53.200;6.448;2022-09-28T04:07:01;8.60;99.90
59041;DHT22;44825;53.200;6.448;2022-09-28T04:09:28;8.60;99.90
59041;DHT22;44825;53.200;6.448;2022-09-28T04:11:56;8.60;99.90
59041;DHT22;44825;53.200;6.448;2022-09-28T04:14:23;8.60;99.90
59041;DHT22;44825;53.200;6.448;2022-09-28T04:16:50;8.70;99.90
59041;DHT22;44825;53.200;6.448;2022-09-28T04:19:19;8.60;99.90
59041;DHT22;44825;53.200;6.448;2022-09-28T04:21:47;8.60;99.90
59041;DHT22;44825;53.200;6.448;2022-09-28T04:24:17;8.60;99.90
59041;DHT22;44825;53.200;6.448;2022-09-28T04:26:45;8.60;99.90
59041;DHT22;44825;53.200;6.448;2022-09-28T04:29:12;8.60;99.90
59041;DHT22;44825;53.200;6.448;2022-09-28T04:31:43;8.50;99.90
59041;DHT22;44825;53.200;6.448;2022-09-28T04:34:12;8.60;99.90
59041;DHT22;44825;53.200;6.448;2022-09-28T04:36:42;8.60;99.90
59041;DHT22;44825;53.200;6.448;2022-09-28T04:39:10;8.60;99.90
59041;DHT22;44825;53.200;6.448;2022-09-28T04:41:38;8.60;99.90
59041;DHT22;44825;53.200;6.448;2022-09-28T04:44:06;8.60;99.90
59041;DHT22;44825;53.200;6.448;2022-09-28T04:46:34;8.60;99.90
59041;DHT22;44825;53.200;6.448;2022-09-28T04:49:01;8.60;99.90
59041;DHT22;44825;53.200;6.448;2022-09-28T04:51:29;8.60;99.90
59041;DHT22;44825;53.200;6.448;2022-09-28T04:53:57;8.60;99.90
59041;DHT22;44825;53.200;6.448;2022-09-28T04:56:24;8.70;99.90
59041;DHT22;44825;53.200;6.448;2022-09-28T04:58:53;8.70;99.90
59041;DHT22;44825;53.200;6.448;2022-09-28T05:01:20;8.70;99.90
59041;DHT22;44825;53.200;6.448;2022-09-28T05:03:49;8.70;99.90
59041;DHT22;44825;53.200;6.448;2022-09-28T05:06:16;8.70;99.90
59041;DHT22;44825;53.200;6.448;2022-09-28T05:08:44;8.70;99.90
59041;DHT22;44825;53.200;6.448;2022-09-28T05:11:12;8.70;99.90
59041;DHT22;44825;53.200;6.448;2022-09-28T05:13:41;8.60;99.90
59041;DHT22;44825;53.200;6.448;2022-09-28T05:16:13;8.60;99.90
59041;DHT22;44825;53.200;6.448;2022-09-28T05:18:40;8.70;99.90
59041;DHT22;44825;53.200;6.448;2022-09-28T05:21:09;8.60;99.90
59041;DHT22;44825;53.200;6.448;2022-09-28T05:23:38;8.60;99.90
59041;DHT22;44825;53.200;6.448;2022-09-28T05:26:05;8.60;99.90
59041;DHT22;44825;53.200;6.448;2022-09-28T05:28:33;8.70;99.90
59041;DHT22;44825;53.200;6.448;2022-09-28T05:31:01;8.60;99.90
59041;DHT22;44825;53.200;6.448;2022-09-28T05:33:31;8.60;99.90
59041;DHT22;44825;53.200;6.448;2022-09-28T05:35:59;8.60;99.90
59041;DHT22;44825;53.200;6.448;2022-09-28T05:38:27;8.70;99.90
59041;DHT22;44825;53.200;6.448;2022-09-28T05:40:54;8.70;99.90
59041;DHT22;44825;53.200;6.448;2022-09-28T05:43:22;8.70;99.90
59041;DHT22;44825;53.200;6.448;2022-09-28T05:45:49;8.70;99.90
59041;DHT22;44825;53.200;6.448;2022-09-28T05:48:17;8.70;99.90
59041;DHT22;44825;53.200;6.448;2022-09-28T05:50:49;8.70;99.90
59041;DHT22;44825;53.200;6.448;2022-09-28T05:53:17;8.70;99.90
59041;DHT22;44825;53.200;6.448;2022-09-28T05:55:44;8.70;99.90
59041;DHT22;44825;53.200;6.448;2022-09-28T05:58:12;8.70;99.90
59041;DHT22;44825;53.200;6.448;2022-09-28T06:00:39;8.70;99.90
59041;DHT22;44825;53.200;6.448;2022-09-28T06:03:09;8.70;99.90
59041;DHT22;44825;53.200;6.448;2022-09-28T06:05:37;8.70;99.90
59041;DHT22;44825;53.200;6.448;2022-09-28T06:08:08;8.70;99.90
59041;DHT22;44825;53.200;6.448;2022-09-28T06:10:37;8.70;99.90
59041;DHT22;44825;53.200;6.448;2022-09-28T06:13:05;8.60;99.90
59041;DHT22;44825;53.200;6.448;2022-09-28T06:15:34;8.70;99.90
59041;DHT22;44825;53.200;6.448;2022-09-28T06:18:03;8.70;99.90
59041;DHT22;44825;53.200;6.448;2022-09-28T06:20:34;8.70;99.90
59041;DHT22;44825;53.200;6.448;2022-09-28T06:23:01;8.70;99.90
59041;DHT22;44825;53.200;6.448;2022-09-28T06:25:31;8.70;99.90
59041;DHT22;44825;53.200;6.448;2022-09-28T06:27:59;8.70;99.90
59041;DHT22;44825;53.200;6.448;2022-09-28T06:30:29;8.70;99.90
59041;DHT22;44825;53.200;6.448;2022-09-28T06:32:57;8.70;99.90
59041;DHT22;44825;53.200;6.448;2022-09-28T06:35:27;8.70;99.90
59041;DHT22;44825;53.200;6.448;2022-09-28T06:37:55;8.70;99.90
59041;DHT22;44825;53.200;6.448;2022-09-28T06:40:23;8.80;99.90
59041;DHT22;44825;53.200;6.448;2022-09-28T06:42:55;8.80;99.90
59041;DHT22;44825;53.200;6.448;2022-09-28T06:45:23;8.90;99.90
59041;DHT22;44825;53.200;6.448;2022-09-28T06:47:54;8.90;99.90
59041;DHT22;44825;53.200;6.448;2022-09-28T06:50:23;8.90;99.90
59041;DHT22;44825;53.200;6.448;2022-09-28T06:52:51;8.90;99.90
59041;DHT22;44825;53.200;6.448;2022-09-28T06:55:19;8.90;99.90
59041;DHT22;44825;53.200;6.448;2022-09-28T06:57:46;8.90;99.90
59041;DHT22;44825;53.200;6.448;2022-09-28T07:00:15;9.00;99.90
59041;DHT22;44825;53.200;6.448;2022-09-28T07:02:42;9.00;99.90
59041;DHT22;44825;53.200;6.448;2022-09-28T07:05:11;9.00;99.90
59041;DHT22;44825;53.200;6.448;2022-09-28T07:07:40;9.10;99.90
59041;DHT22;44825;53.200;6.448;2022-09-28T07:10:10;9.10;99.90
59041;DHT22;44825;53.200;6.448;2022-09-28T07:12:37;9.20;99.90
59041;DHT22;44825;53.200;6.448;2022-09-28T07:15:06;9.20;99.90
59041;DHT22;44825;53.200;6.448;2022-09-28T07:17:35;9.30;99.90
59041;DHT22;44825;53.200;6.448;2022-09-28T07:20:03;9.30;99.90
59041;DHT22;44825;53.200;6.448;2022-09-28T07:22:30;9.30;99.90
59041;DHT22;44825;53.200;6.448;2022-09-28T07:24:57;9.40;99.90
59041;DHT22;44825;53.200;6.448;2022-09-28T07:27:25;9.40;99.90
59041;DHT22;44825;53.200;6.448;2022-09-28T07:29:52;9.50;99.90
59041;DHT22;44825;53.200;6.448;2022-09-28T07:32:20;9.50;99.90
59041;DHT22;44825;53.200;6.448;2022-09-28T07:34:48;9.50;99.90
59041;DHT22;44825;53.200;6.448;2022-09-28T07:37:17;9.50;99.90
59041;DHT22;44825;53.200;6.448;2022-09-28T07:39:45;9.60;99.90
59041;DHT22;44825;53.200;6.448;2022-09-28T07:42:30;9.60;99.90
59041;DHT22;44825;53.200;6.448;2022-09-28T07:44:57;9.70;99.90
59041;DHT22;44825;53.200;6.448;2022-09-28T07:47:25;9.70;99.90
59041;DHT22;44825;53.200;6.448;2022-09-28T07:49:54;9.70;99.90
59041;DHT22;44825;53.200;6.448;2022-09-28T07:52:23;9.80;99.90
59041;DHT22;44825;53.200;6.448;2022-09-28T07:54:51;9.90;99.90
59041;DHT22;44825;53.200;6.448;2022-09-28T07:57:19;9.90;99.90
59041;DHT22;44825;53.200;6.448;2022-09-28T07:59:47;10.00;99.90
59041;DHT22;44825;53.200;6.448;2022-09-28T08:02:16;10.00;99.90
59041;DHT22;44825;53.200;6.448;2022-09-28T08:04:45;10.10;99.90
59041;DHT22;44825;53.200;6.448;2022-09-28T08:07:14;10.20;99.90
59041;DHT22;44825;53.200;6.448;2022-09-28T08:09:42;10.20;99.90
59041;DHT22;44825;53.200;6.448;2022-09-28T08:12:10;10.30;99.90
59041;DHT22;44825;53.200;6.448;2022-09-28T08:14:38;10.40;99.90
59041;DHT22;44825;53.200;6.448;2022-09-28T08:17:06;10.40;99.90
59041;DHT22;44825;53.200;6.448;2022-09-28T08:19:35;10.50;99.90
59041;DHT22;44825;53.200;6.448;2022-09-28T08:22:21;10.50;99.90
59041;DHT22;44825;53.200;6.448;2022-09-28T08:24:49;10.60;99.90
59041;DHT22;44825;53.200;6.448;2022-09-28T08:27:16;10.70;99.90
59041;DHT22;44825;53.200;6.448;2022-09-28T08:29:43;10.70;99.90
59041;DHT22;44825;53.200;6.448;2022-09-28T08:32:11;10.80;99.90
59041;DHT22;44825;53.200;6.448;2022-09-28T08:34:40;10.90;99.90
59041;DHT22;44825;53.200;6.448;2022-09-28T08:37:09;10.90;99.90
59041;DHT22;44825;53.200;6.448;2022-09-28T08:39:38;11.00;99.90
59041;DHT22;44825;53.200;6.448;2022-09-28T08:42:29;11.10;99.90
59041;DHT22;44825;53.200;6.448;2022-09-28T08:45:03;11.20;99.90
59041;DHT22;44825;53.200;6.448;2022-09-28T08:47:36;11.30;99.90
59041;DHT22;44825;53.200;6.448;2022-09-28T08:50:28;11.40;99.90
59041;DHT22;44825;53.200;6.448;2022-09-28T08:53:01;11.50;99.90
59041;DHT22;44825;53.200;6.448;2022-09-28T08:55:32;11.60;99.90
59041;DHT22;44825;53.200;6.448;2022-09-28T08:58:04;11.60;99.90
59041;DHT22;44825;53.200;6.448;2022-09-28T09:00:40;11.70;99.90
59041;DHT22;44825;53.200;6.448;2022-09-28T09:03:11;11.80;99.90
59041;DHT22;44825;53.200;6.448;2022-09-28T09:05:49;11.90;99.90
59041;DHT22;44825;53.200;6.448;2022-09-28T09:08:29;12.00;99.90
59041;DHT22;44825;53.200;6.448;2022-09-28T09:11:10;12.00;99.90
59041;DHT22;44825;53.200;6.448;2022-09-28T09:16:53;12.20;99.90
59041;DHT22;44825;53.200;6.448;2022-09-28T09:19:32;12.10;99.90
59041;DHT22;44825;53.200;6.448;2022-09-28T09:22:11;12.20;99.90
59041;DHT22;44825;53.200;6.448;2022-09-28T09:24:47;12.20;99.90
59041;DHT22;44825;53.200;6.448;2022-09-28T09:27:29;12.10;99.90
59041;DHT22;44825;53.200;6.448;2022-09-28T09:30:05;12.10;99.90
59041;DHT22;44825;53.200;6.448;2022-09-28T09:35:51;12.10;99.90
59041;DHT22;44825;53.200;6.448;2022-09-28T09:38:34;12.20;99.90
59041;DHT22;44825;53.200;6.448;2022-09-28T09:41:11;12.40;99.90
59041;DHT22;44825;53.200;6.448;2022-09-28T09:43:53;12.50;99.90
59041;DHT22;44825;53.200;6.448;2022-09-28T09:46:33;12.70;99.90
59041;DHT22;44825;53.200;6.448;2022-09-28T09:49:07;12.90;99.90
59041;DHT22;44825;53.200;6.448;2022-09-28T09:51:41;13.00;99.90
59041;DHT22;44825;53.200;6.448;2022-09-28T09:54:17;13.20;99.90
59041;DHT22;44825;53.200;6.448;2022-09-28T09:56:50;13.30;99.90
59041;DHT22;44825;53.200;6.448;2022-09-28T09:59:23;13.40;99.90
59041;DHT22;44825;53.200;6.448;2022-09-28T10:01:52;13.30;99.90
59041;DHT22;44825;53.200;6.448;2022-09-28T10:04:23;13.20;99.90
59041;DHT22;44825;53.200;6.448;2022-09-28T10:06:57;13.10;99.90
59041;DHT22;44825;53.200;6.448;2022-09-28T10:09:28;13.00;99.90
59041;DHT22;44825;53.200;6.448;2022-09-28T10:11:56;12.90;99.90
59041;DHT22;44825;53.200;6.448;2022-09-28T10:14:25;12.80;99.90
59041;DHT22;44825;53.200;6.448;2022-09-28T10:16:55;12.70;99.90
59041;DHT22;44825;53.200;6.448;2022-09-28T10:19:29;12.70;99.90
59041;DHT22;44825;53.200;6.448;2022-09-28T10:21:58;12.70;99.90
59041;DHT22;44825;53.200;6.448;2022-09-28T10:24:30;12.70;99.90
59041;DHT22;44825;53.200;6.448;2022-09-28T10:27:04;12.80;99.90
59041;DHT22;44825;53.200;6.448;2022-09-28T10:29:40;12.90;99.90
59041;DHT22;44825;53.200;6.448;2022-09-28T10:32:20;13.10;99.90
59041;DHT22;44825;53.200;6.448;2022-09-28T10:34:50;13.40;99.90
59041;DHT22;44825;53.200;6.448;2022-09-28T10:37:18;13.50;99.90
59041;DHT22;44825;53.200;6.448;2022-09-28T10:39:49;13.70;99.90
59041;DHT22;44825;53.200;6.448;2022-09-28T10:42:20;13.80;99.90
59041;DHT22;44825;53.200;6.448;2022-09-28T10:44:58;13.90;99.90
59041;DHT22;44825;53.200;6.448;2022-09-28T10:47:28;14.00;99.90
59041;DHT22;44825;53.200;6.448;2022-09-28T10:49:58;14.10;99.90
59041;DHT22;44825;53.200;6.448;2022-09-28T10:52:30;14.30;99.90
59041;DHT22;44825;53.200;6.448;2022-09-28T10:54:58;14.40;99.90
59041;DHT22;44825;53.200;6.448;2022-09-28T10:57:27;14.50;99.90
59041;DHT22;44825;53.200;6.448;2022-09-28T10:59:57;14.60;99.90
59041;DHT22;44825;53.200;6.448;2022-09-28T11:02:25;14.60;99.90
59041;DHT22;44825;53.200;6.448;2022-09-28T11:04:56;14.50;99.90
59041;DHT22;44825;53.200;6.448;2022-09-28T11:07:26;14.40;99.90
59041;DHT22;44825;53.200;6.448;2022-09-28T11:09:55;14.20;99.90
59041;DHT22;44825;53.200;6.448;2022-09-28T11:12:25;14.00;99.90
59041;DHT22;44825;53.200;6.448;2022-09-28T11:14:59;13.90;99.90
59041;DHT22;44825;53.200;6.448;2022-09-28T11:17:29;13.80;99.90
59041;DHT22;44825;53.200;6.448;2022-09-28T11:19:58;13.60;99.90
59041;DHT22;44825;53.200;6.448;2022-09-28T11:22:28;13.50;99.90
59041;DHT22;44825;53.200;6.448;2022-09-28T11:25:21;13.50;99.90
59041;DHT22;44825;53.200;6.448;2022-09-28T11:27:58;13.40;99.90
59041;DHT22;44825;53.200;6.448;2022-09-28T11:30:30;13.30;99.90
59041;DHT22;44825;53.200;6.448;2022-09-28T11:33:02;13.20;99.90
59041;DHT22;44825;53.200;6.448;2022-09-28T11:35:40;13.20;99.90
59041;DHT22;44825;53.200;6.448;2022-09-28T11:38:31;13.20;99.90
59041;DHT22;44825;53.200;6.448;2022-09-28T11:41:11;13.10;99.90
59041;DHT22;44825;53.200;6.448;2022-09-28T11:44:04;13.10;99.90
59041;DHT22;44825;53.200;6.448;2022-09-28T11:46:43;13.10;99.90
59041;DHT22;44825;53.200;6.448;2022-09-28T11:49:25;13.10;99.90
59041;DHT22;44825;53.200;6.448;2022-09-28T11:51:57;13.10;99.90
59041;DHT22;44825;53.200;6.448;2022-09-28T11:54:29;13.10;99.90
59041;DHT22;44825;53.200;6.448;2022-09-28T11:57:00;13.30;99.90
59041;DHT22;44825;53.200;6.448;2022-09-28T11:59:33;13.50;99.90
59041;DHT22;44825;53.200;6.448;2022-09-28T12:02:12;13.60;99.90
59041;DHT22;44825;53.200;6.448;2022-09-28T12:04:44;13.60;99.90
59041;DHT22;44825;53.200;6.448;2022-09-28T12:07:16;13.60;99.90
59041;DHT22;44825;53.200;6.448;2022-09-28T12:09:49;13.60;99.90
59041;DHT22;44825;53.200;6.448;2022-09-28T12:12:22;13.50;99.90
59041;DHT22;44825;53.200;6.448;2022-09-28T12:14:53;13.30;99.90
59041;DHT22;44825;53.200;6.448;2022-09-28T12:17:29;13.30;99.90
59041;DHT22;44825;53.200;6.448;2022-09-28T12:20:02;13.10;99.90
59041;DHT22;44825;53.200;6.448;2022-09-28T12:22:35;13.00;99.90
59041;DHT22;44825;53.200;6.448;2022-09-28T12:25:09;12.90;99.90
59041;DHT22;44825;53.200;6.448;2022-09-28T12:27:40;12.80;99.90
59041;DHT22;44825;53.200;6.448;2022-09-28T12:30:13;12.70;99.90
59041;DHT22;44825;53.200;6.448;2022-09-28T12:32:45;12.60;99.90
59041;DHT22;44825;53.200;6.448;2022-09-28T12:35:24;12.40;99.90
59041;DHT22;44825;53.200;6.448;2022-09-28T12:38:06;12.40;99.90
59041;DHT22;44825;53.200;6.448;2022-09-28T12:40:42;12.20;99.90
59041;DHT22;44825;53.200;6.448;2022-09-28T12:46:20;12.10;99.90
59041;DHT22;44825;53.200;6.448;2022-09-28T12:51:56;12.00;99.90
59041;DHT22;44825;53.200;6.448;2022-09-28T12:54:46;11.90;99.90
59041;DHT22;44825;53.200;6.448;2022-09-28T12:57:33;11.90;99.90
59041;DHT22;44825;53.200;6.448;2022-09-28T13:00:05;11.90;99.90
59041;DHT22;44825;53.200;6.448;2022-09-28T13:03:00;11.80;99.90
59041;DHT22;44825;53.200;6.448;2022-09-28T13:08:32;11.80;99.90
59041;DHT22;44825;53.200;6.448;2022-09-28T13:11:07;11.80;99.90
59041;DHT22;44825;53.200;6.448;2022-09-28T13:13:46;11.80;99.90
59041;DHT22;44825;53.200;6.448;2022-09-28T13:16:20;11.90;99.90
59041;DHT22;44825;53.200;6.448;2022-09-28T13:18:55;12.00;99.90
59041;DHT22;44825;53.200;6.448;2022-09-28T13:21:35;12.00;99.90
59041;DHT22;44825;53.200;6.448;2022-09-28T13:24:05;12.10;99.90
59041;DHT22;44825;53.200;6.448;2022-09-28T13:26:36;12.20;99.90
59041;DHT22;44825;53.200;6.448;2022-09-28T13:29:10;12.30;99.90
59041;DHT22;44825;53.200;6.448;2022-09-28T13:31:42;12.40;99.90
59041;DHT22;44825;53.200;6.448;2022-09-28T13:34:14;12.40;99.90
59041;DHT22;44825;53.200;6.448;2022-09-28T13:37:07;12.50;99.90
59041;DHT22;44825;53.200;6.448;2022-09-28T13:39:37;12.50;99.90
59041;DHT22;44825;53.200;6.448;2022-09-28T13:42:23;12.50;99.90
59041;DHT22;44825;53.200;6.448;2022-09-28T13:45:14;12.60;99.90
59041;DHT22;44825;53.200;6.448;2022-09-28T13:47:57;12.60;99.90
59041;DHT22;44825;53.200;6.448;2022-09-28T13:50:37;12.60;99.90
59041;DHT22;44825;53.200;6.448;2022-09-28T13:53:18;12.60;99.90
59041;DHT22;44825;53.200;6.448;2022-09-28T13:55:55;12.60;99.90
59041;DHT22;44825;53.200;6.448;2022-09-28T13:58:29;12.60;99.90
59041;DHT22;44825;53.200;6.448;2022-09-28T14:01:02;12.60;99.90
59041;DHT22;44825;53.200;6.448;2022-09-28T14:03:42;12.60;99.90
59041;DHT22;44825;53.200;6.448;2022-09-28T14:06:21;12.50;99.90
59041;DHT22;44825;53.200;6.448;2022-09-28T14:09:27;12.50;99.90
59041;DHT22;44825;53.200;6.448;2022-09-28T14:12:27;12.50;99.90
59041;DHT22;44825;53.200;6.448;2022-09-28T14:14:54;12.50;99.90
59041;DHT22;44825;53.200;6.448;2022-09-28T14:17:49;12.40;99.90
59041;DHT22;44825;53.200;6.448;2022-09-28T14:20:22;12.40;99.90
59041;DHT22;44825;53.200;6.448;2022-09-28T14:23:09;12.40;99.90
59041;DHT22;44825;53.200;6.448;2022-09-28T14:25:43;12.30;99.90
59041;DHT22;44825;53.200;6.448;2022-09-28T14:28:32;12.30;99.90
59041;DHT22;44825;53.200;6.448;2022-09-28T14:31:07;12.30;99.90
59041;DHT22;44825;53.200;6.448;2022-09-28T14:33:36;12.20;99.90
59041;DHT22;44825;53.200;6.448;2022-09-28T14:36:22;12.20;99.90
59041;DHT22;44825;53.200;6.448;2022-09-28T14:39:26;12.30;99.90
59041;DHT22;44825;53.200;6.448;2022-09-28T14:42:15;12.30;99.90
59041;DHT22;44825;53.200;6.448;2022-09-28T14:48:20;12.40;99.90
59041;DHT22;44825;53.200;6.448;2022-09-28T14:50:48;12.40;99.90
59041;DHT22;44825;53.200;6.448;2022-09-28T14:53:21;12.40;99.90
59041;DHT22;44825;53.200;6.448;2022-09-28T14:55:52;12.50;99.90
59041;DHT22;44825;53.200;6.448;2022-09-28T14:58:24;12.50;99.90
59041;DHT22;44825;53.200;6.448;2022-09-28T15:01:00;12.40;99.90
59041;DHT22;44825;53.200;6.448;2022-09-28T15:03:29;12.50;99.90
59041;DHT22;44825;53.200;6.448;2022-09-28T15:05:58;12.40;99.90
59041;DHT22;44825;53.200;6.448;2022-09-28T15:08:35;12.40;99.90
59041;DHT22;44825;53.200;6.448;2022-09-28T15:11:03;12.40;99.90
59041;DHT22;44825;53.200;6.448;2022-09-28T15:13:33;12.40;99.90
59041;DHT22;44825;53.200;6.448;2022-09-28T15:16:07;12.30;99.90
59041;DHT22;44825;53.200;6.448;2022-09-28T15:21:41;12.20;99.90
59041;DHT22;44825;53.200;6.448;2022-09-28T15:24:27;12.20;99.90
59041;DHT22;44825;53.200;6.448;2022-09-28T15:26:57;12.20;99.90
59041;DHT22;44825;53.200;6.448;2022-09-28T15:29:26;12.20;99.90
59041;DHT22;44825;53.200;6.448;2022-09-28T15:31:56;12.20;99.90
59041;DHT22;44825;53.200;6.448;2022-09-28T15:34:28;12.20;99.90
59041;DHT22;44825;53.200;6.448;2022-09-28T15:37:15;12.10;99.90
59041;DHT22;44825;53.200;6.448;2022-09-28T15:39:42;12.10;99.90
59041;DHT22;44825;53.200;6.448;2022-09-28T15:42:14;12.10;99.90
59041;DHT22;44825;53.200;6.448;2022-09-28T15:44:59;12.10;99.90
59041;DHT22;44825;53.200;6.448;2022-09-28T15:47:28;12.10;99.90
59041;DHT22;44825;53.200;6.448;2022-09-28T15:49:59;12.10;99.90
59041;DHT22;44825;53.200;6.448;2022-09-28T15:52:31;12.10;99.90
59041;DHT22;44825;53.200;6.448;2022-09-28T15:55:04;12.20;99.90
59041;DHT22;44825;53.200;6.448;2022-09-28T15:57:39;12.20;99.90
59041;DHT22;44825;53.200;6.448;2022-09-28T16:00:23;12.20;99.90
59041;DHT22;44825;53.200;6.448;2022-09-28T16:03:02;12.20;99.90
59041;DHT22;44825;53.200;6.448;2022-09-28T16:05:38;12.20;99.90
59041;DHT22;44825;53.200;6.448;2022-09-28T16:08:13;12.20;99.90
59041;DHT22;44825;53.200;6.448;2022-09-28T16:11:05;12.20;99.90
59041;DHT22;44825;53.200;6.448;2022-09-28T16:13:44;12.10;99.90
59041;DHT22;44825;53.200;6.448;2022-09-28T16:16:15;12.10;99.90
59041;DHT22;44825;53.200;6.448;2022-09-28T16:18:46;12.10;99.90
59041;DHT22;44825;53.200;6.448;2022-09-28T16:21:38;12.00;99.90
59041;DHT22;44825;53.200;6.448;2022-09-28T16:24:11;12.00;99.90
59041;DHT22;44825;53.200;6.448;2022-09-28T16:26:45;12.00;99.90
59041;DHT22;44825;53.200;6.448;2022-09-28T16:29:24;11.90;99.90
59041;DHT22;44825;53.200;6.448;2022-09-28T16:31:53;11.90;99.90
59041;DHT22;44825;53.200;6.448;2022-09-28T16:34:24;11.80;99.90
59041;DHT22;44825;53.200;6.448;2022-09-28T16:36:53;11.80;99.90
59041;DHT22;44825;53.200;6.448;2022-09-28T16:39:20;11.80;99.90